Time;durP1;ratioP1;P1;durP2;ratioP2;P2;SDS_P1;SDS_P2;PMS_P1;PMS_P2;Temp;Humidity;BMP_temperature;BMP_pressure;BME280_temperature;BME280_humidity;BME280_pressure;Samples;Min_cycle;Max_cycle;Signal;HPM_P1;HPM_P2
2022/01/10 00:00:00;;;;;;;5.82;3.20;;;;;;;4.63;100.00;92852.88;5134094;27;20015;-72
2022/01/10 00:02:27;;;;;;;6.20;3.55;;;;;;;4.72;100.00;92852.66;5134029;27;20027;-72
2022/01/10 00:04:52;;;;;;;4.10;2.78;;;;;;;4.64;100.00;92847.03;5134768;27;20417;-72
2022/01/10 00:07:18;;;;;;;4.55;3.05;;;;;;;4.60;100.00;92849.22;5134010;27;20015;-72
2022/01/10 00:09:43;;;;;;;5.63;3.15;;;;;;;4.63;100.00;92855.56;5132929;28;20019;-72
2022/01/10 00:12:09;;;;;;;4.00;2.72;;;;;;;4.64;100.00;92854.34;5134064;27;20083;-72
2022/01/10 00:14:35;;;;;;;4.10;2.55;;;;;;;4.67;100.00;92859.47;5134070;27;20023;-72
2022/01/10 00:17:01;;;;;;;6.68;3.47;;;;;;;4.80;100.00;92859.00;5133734;27;20049;-71
2022/01/10 00:19:26;;;;;;;6.07;3.70;;;;;;;4.60;100.00;92854.59;5133643;27;20019;-72
2022/01/10 00:21:52;;;;;;;5.15;3.53;;;;;;;4.63;100.00;92855.56;5134290;27;20023;-71
2022/01/10 00:24:17;;;;;;;6.22;3.00;;;;;;;4.66;100.00;92852.66;5134010;27;20378;-71
2022/01/10 00:26:42;;;;;;;4.65;3.15;;;;;;;4.74;100.00;92858.25;5137464;27;20030;-71
2022/01/10 00:29:08;;;;;;;7.38;4.45;;;;;;;4.76;100.00;92855.84;5135953;27;20019;-71
2022/01/10 00:31:34;;;;;;;7.97;4.85;;;;;;;4.63;100.00;92858.97;5133759;27;20027;-72
2022/01/10 00:33:59;;;;;;;10.48;5.95;;;;;;;4.64;100.00;92854.34;5133799;27;20041;-72
2022/01/10 00:36:26;;;;;;;14.05;6.30;;;;;;;4.65;100.00;92856.56;5132932;28;20027;-73
2022/01/10 00:38:51;;;;;;;8.20;5.07;;;;;;;4.55;100.00;92855.31;5139211;27;20448;-71
2022/01/10 00:41:17;;;;;;;7.50;4.15;;;;;;;4.46;100.00;92855.53;5145264;27;20023;-73
2022/01/10 00:43:46;;;;;;;6.28;3.90;;;;;;;4.55;100.00;92863.38;5148456;27;20051;-71
2022/01/10 00:46:12;;;;;;;7.68;3.60;;;;;;;4.43;100.00;92859.97;5148481;27;20011;-72
2022/01/10 00:48:38;;;;;;;7.40;4.55;;;;;;;4.44;100.00;92853.34;5141315;27;20025;-72
2022/01/10 00:51:04;;;;;;;6.43;4.00;;;;;;;4.51;100.00;92854.81;5137707;27;20019;-73
2022/01/10 00:53:29;;;;;;;7.55;4.22;;;;;;;4.41;100.00;92846.25;5137660;27;20034;-73
2022/01/10 00:55:55;;;;;;;6.50;3.47;;;;;;;4.31;100.00;92845.00;5136673;27;20023;-71
2022/01/10 00:58:20;;;;;;;8.52;4.00;;;;;;;4.40;100.00;92839.41;5137630;27;20053;-72
2022/01/10 01:00:46;;;;;;;8.65;4.22;;;;;;;4.34;100.00;92844.78;5137362;27;20416;-72
2022/01/10 01:03:12;;;;;;;6.50;3.88;;;;;;;4.46;100.00;92850.16;5137703;27;20027;-72
2022/01/10 01:05:41;;;;;;;5.65;3.42;;;;;;;4.41;100.00;92846.25;5136152;27;20016;-72
2022/01/10 01:08:08;;;;;;;5.43;3.35;;;;;;;4.44;100.00;92847.25;5136115;27;20057;-72
2022/01/10 01:26:27;;;;;;;5.15;3.88;;;;;;;4.34;100.00;92836.00;5136660;27;20019;-71
2022/01/10 01:28:53;;;;;;;5.13;3.20;;;;;;;4.49;100.00;92833.81;5136616;27;20015;-71
2022/01/10 01:31:18;;;;;;;4.30;3.13;;;;;;;4.43;100.00;92825.03;5137044;27;20015;-71
2022/01/10 01:33:45;;;;;;;6.00;3.80;;;;;;;4.41;100.00;92830.16;5136594;27;20102;-71
2022/01/10 01:36:10;;;;;;;4.38;3.38;;;;;;;4.31;100.00;92828.91;5135423;27;20464;-70
2022/01/10 01:38:38;;;;;;;4.45;3.15;;;;;;;4.33;100.00;92816.44;5136314;27;20023;-71
2022/01/10 01:43:45;;;;;;;4.05;2.90;;;;;;;4.14;100.00;92808.13;5136735;27;20499;-70
2022/01/10 01:46:11;;;;;;;6.22;3.47;;;;;;;4.21;100.00;92813.03;5136276;27;20034;-71
2022/01/10 01:48:36;;;;;;;4.05;3.35;;;;;;;4.25;100.00;92810.09;5136153;27;20022;-72
2022/01/10 01:51:04;;;;;;;6.40;3.97;;;;;;;4.25;100.00;92810.09;5136132;27;20031;-72
2022/01/10 01:53:30;;;;;;;5.78;3.45;;;;;;;4.25;100.00;92810.09;5136040;27;20062;-71
2022/01/10 01:55:57;;;;;;;4.93;3.60;;;;;;;4.30;100.00;92808.66;5134203;27;20055;-71
2022/01/10 01:58:24;;;;;;;5.75;3.70;;;;;;;4.41;100.00;92805.97;5135041;27;20486;-71
2022/01/10 02:00:49;;;;;;;9.07;4.50;;;;;;;4.46;100.00;92807.94;5136002;27;20428;-72
2022/01/10 02:03:15;;;;;;;7.95;4.32;;;;;;;4.47;100.00;92806.72;5136231;27;20023;-71
2022/01/10 02:05:40;;;;;;;7.72;5.35;;;;;;;4.53;100.00;92814.78;5135868;27;20132;-71
2022/01/10 02:08:08;;;;;;;9.15;5.47;;;;;;;4.61;100.00;92812.31;5138265;27;20051;-71
2022/01/10 02:10:34;;;;;;;11.23;5.70;;;;;;;4.57;100.00;92805.25;5135758;27;20437;-71
2022/01/10 02:12:59;;;;;;;8.95;5.53;;;;;;;4.43;100.00;92803.53;5135807;27;20227;-71
2022/01/10 02:15:33;;;;;;;11.52;6.13;;;;;;;4.51;100.00;92814.53;5135776;27;20041;-71
2022/01/10 02:18:00;;;;;;;10.02;6.28;;;;;;;4.45;100.00;92811.84;5135899;27;20019;-71
2022/01/10 02:20:29;;;;;;;11.82;6.40;;;;;;;4.34;100.00;92801.09;5134536;27;20030;-71
2022/01/10 02:22:54;;;;;;;9.18;5.70;;;;;;;4.20;100.00;92808.88;5135585;27;20019;-72
2022/01/10 02:25:20;;;;;;;13.32;6.55;;;;;;;4.29;100.00;92804.50;5135816;27;20030;-72
2022/01/10 02:27:46;;;;;;;12.85;6.55;;;;;;;4.30;100.00;92812.06;5135759;27;20023;-72
2022/01/10 02:30:11;;;;;;;9.45;5.75;;;;;;;4.37;100.00;92811.56;5135886;27;20023;-71
2022/01/10 02:32:37;;;;;;;9.20;6.28;;;;;;;4.53;100.00;92812.09;5135282;27;20051;-71
2022/01/10 02:35:03;;;;;;;14.13;6.35;;;;;;;4.37;100.00;92819.63;5135461;27;20023;-71
2022/01/10 02:37:36;;;;;;;9.73;5.80;;;;;;;4.34;100.00;92814.53;5135702;27;20019;-72
2022/01/10 02:40:06;;;;;;;9.38;6.30;;;;;;;4.32;100.00;92811.56;5135581;27;20110;-72
2022/01/10 02:42:33;;;;;;;11.77;5.90;;;;;;;4.25;100.00;92815.47;5135748;27;20027;-72
2022/01/10 02:44:59;;;;;;;10.10;6.40;;;;;;;4.36;100.00;92817.44;5135104;27;20133;-71
2022/01/10 02:47:27;;;;;;;10.32;5.82;;;;;;;4.20;100.00;92813.53;5135421;27;20155;-72
2022/01/10 02:49:53;;;;;;;10.60;6.40;;;;;;;3.95;100.00;92809.78;5135176;27;20088;-72
2022/01/10 02:52:18;;;;;;;8.35;5.93;;;;;;;3.94;100.00;92811.00;5135107;27;20475;-72
2022/01/10 02:54:44;;;;;;;10.82;5.80;;;;;;;3.84;100.00;92811.22;5135118;27;20047;-72
2022/01/10 02:57:09;;;;;;;8.15;6.03;;;;;;;3.77;100.00;92819.03;5135345;27;20031;-72
2022/01/10 02:59:37;;;;;;;10.93;6.88;;;;;;;3.98;100.00;92808.81;5135400;27;20023;-72
2022/01/10 03:02:03;;;;;;;12.30;7.13;;;;;;;3.79;100.00;92809.28;5135113;27;20035;-72
2022/01/10 03:04:28;;;;;;;11.80;7.05;;;;;;;3.86;100.00;92808.78;5134776;27;20026;-72
2022/01/10 03:06:54;;;;;;;11.18;7.70;;;;;;;3.73;100.00;92808.50;5133621;27;20384;-72
2022/01/10 03:09:19;;;;;;;12.70;8.55;;;;;;;3.67;100.00;92813.13;5133715;27;20113;-71
2022/01/10 03:11:45;;;;;;;12.95;9.20;;;;;;;3.67;100.00;92813.84;5134671;27;20027;-72
2022/01/10 03:14:14;;;;;;;14.52;9.93;;;;;;;3.65;100.00;92813.59;5134626;27;20026;-72
2022/01/10 03:16:40;;;;;;;19.27;10.75;;;;;;;3.72;100.00;92815.09;5134523;27;20470;-71
2022/01/10 03:19:05;;;;;;;18.05;11.07;;;;;;;3.66;100.00;92811.66;5134496;27;20019;-72
2022/01/10 03:21:31;;;;;;;21.50;11.40;;;;;;;3.56;100.00;92803.09;5134431;27;20424;-72
2022/01/10 03:23:59;;;;;;;16.77;10.57;;;;;;;3.60;100.00;92802.84;5134438;27;20380;-72
2022/01/10 03:26:26;;;;;;;15.95;9.30;;;;;;;3.61;100.00;92805.03;5133691;27;20440;-71
2022/01/10 03:28:53;;;;;;;13.20;8.05;;;;;;;3.57;100.00;92804.53;5134384;27;20015;-71
2022/01/10 03:31:19;;;;;;;11.38;7.75;;;;;;;3.60;100.00;92808.22;5134319;27;20019;-71
2022/01/10 03:33:44;;;;;;;10.68;6.97;;;;;;;3.58;100.00;92810.66;5134269;27;20088;-71
2022/01/10 03:36:10;;;;;;;9.48;6.68;;;;;;;3.57;100.00;92809.91;5134231;27;20050;-71
2022/01/10 03:38:36;;;;;;;9.93;6.45;;;;;;;3.64;100.00;92800.66;5134408;27;20102;-71
2022/01/10 03:41:01;;;;;;;13.30;8.40;;;;;;;3.61;100.00;92798.94;5134367;27;20019;-71
2022/01/10 03:43:27;;;;;;;13.48;7.93;;;;;;;3.61;100.00;92807.00;5134236;27;20070;-71
2022/01/10 03:45:53;;;;;;;9.77;6.57;;;;;;;3.50;100.00;92805.72;5134386;27;20041;-71
2022/01/10 03:48:18;;;;;;;9.82;6.45;;;;;;;3.60;100.00;92805.53;5134535;27;20067;-70
2022/01/10 03:50:44;;;;;;;9.43;6.55;;;;;;;3.61;100.00;92805.03;5135294;27;20030;-70
2022/01/10 03:53:09;;;;;;;12.65;7.70;;;;;;;3.57;100.00;92809.19;5134009;27;20489;-71
2022/01/10 03:55:35;;;;;;;10.60;7.03;;;;;;;3.52;100.00;92816.00;5134050;27;20019;-71
2022/01/10 03:58:00;;;;;;;11.00;7.50;;;;;;;3.49;100.00;92815.00;5134060;27;20080;-70
2022/01/10 04:00:26;;;;;;;10.98;6.68;;;;;;;3.54;100.00;92814.31;5133882;27;20019;-71
2022/01/10 04:02:57;;;;;;;12.73;7.72;;;;;;;3.38;100.00;92817.63;5133913;27;20027;-71
2022/01/10 04:05:23;;;;;;;11.88;7.05;;;;;;;3.34;100.00;92809.81;5134486;27;20027;-71
2022/01/10 04:07:49;;;;;;;13.35;7.43;;;;;;;3.32;100.00;92812.22;5133844;27;20474;-71
2022/01/10 04:10:14;;;;;;;13.52;7.47;;;;;;;3.30;100.00;92824.66;5133851;27;20019;-71
2022/01/10 04:12:40;;;;;;;11.38;7.40;;;;;;;3.34;100.00;92815.19;5134300;27;20066;-71
2022/01/10 04:15:08;;;;;;;16.17;7.85;;;;;;;3.26;100.00;92824.13;5134052;27;20487;-71
2022/01/10 04:17:34;;;;;;;13.27;7.55;;;;;;;3.29;100.00;92831.25;5133697;27;20121;-71
2022/01/10 04:20:00;;;;;;;12.40;7.60;;;;;;;3.27;100.00;92830.97;5138115;27;20466;-71
2022/01/10 04:22:25;;;;;;;12.35;7.05;;;;;;;3.17;100.00;92838.47;5137985;27;20027;-71
2022/01/10 04:24:50;;;;;;;14.30;8.40;;;;;;;3.22;100.00;92841.19;5138381;27;20094;-71
2022/01/10 04:27:16;;;;;;;12.40;7.80;;;;;;;3.21;100.00;92844.34;5137921;27;20118;-71
2022/01/10 04:29:41;;;;;;;12.07;7.15;;;;;;;3.30;100.00;92846.09;5137854;27;20195;-71
2022/01/10 04:32:08;;;;;;;12.88;7.68;;;;;;;3.26;100.00;92850.94;5137973;27;20087;-71
2022/01/10 04:34:34;;;;;;;11.27;7.43;;;;;;;3.16;100.00;92847.72;5137860;27;20034;-71
2022/01/10 04:36:59;;;;;;;12.13;7.95;;;;;;;3.20;100.00;92867.00;5137982;27;20380;-71
2022/01/10 04:39:25;;;;;;;11.88;7.50;;;;;;;3.13;100.00;92854.78;5137654;27;20127;-71
2022/01/10 04:41:50;;;;;;;15.15;8.23;;;;;;;3.12;100.00;92858.69;5136617;27;20027;-71
2022/01/10 04:44:16;;;;;;;12.48;8.18;;;;;;;3.14;100.00;92855.53;5137568;27;20042;-71
2022/01/10 04:46:41;;;;;;;13.57;8.82;;;;;;;3.07;100.00;92853.28;5136552;27;20019;-71
2022/01/10 04:49:14;;;;;;;13.15;8.20;;;;;;;3.05;100.00;92856.44;5137679;27;20019;-70
2022/01/10 04:51:39;;;;;;;11.90;7.53;;;;;;;3.02;100.00;92868.13;5137708;27;20091;-70
2022/01/10 04:54:05;;;;;;;17.17;8.20;;;;;;;3.04;100.00;92871.03;5137574;27;20420;-70
2022/01/10 04:56:31;;;;;;;11.88;8.13;;;;;;;3.09;100.00;92869.63;5137234;27;20019;-70
2022/01/10 04:58:56;;;;;;;17.10;7.80;;;;;;;3.13;100.00;92870.88;5137403;27;20019;-70
2022/01/10 05:01:23;;;;;;;12.95;8.30;;;;;;;3.14;100.00;92877.72;5137221;27;20391;-70
2022/01/10 05:03:48;;;;;;;17.05;8.45;;;;;;;3.19;100.00;92882.38;5137093;27;20034;-70
2022/01/10 05:06:14;;;;;;;15.25;8.57;;;;;;;3.20;100.00;92886.53;5137319;27;20019;-71
2022/01/10 05:08:40;;;;;;;14.80;8.35;;;;;;;3.02;100.00;92886.88;5137195;27;20046;-71
2022/01/10 05:11:05;;;;;;;14.38;8.23;;;;;;;3.01;100.00;92886.16;5137480;27;20023;-70
2022/01/10 05:13:32;;;;;;;13.38;7.93;;;;;;;2.96;100.00;92886.84;5136858;27;20054;-69
2022/01/10 05:15:58;;;;;;;13.52;9.48;;;;;;;3.00;100.00;92892.72;5137131;27;20027;-69
2022/01/10 05:18:24;;;;;;;13.68;8.68;;;;;;;3.02;100.00;92882.25;5136885;27;20578;-69
2022/01/10 05:20:50;;;;;;;16.05;10.27;;;;;;;2.95;100.00;92890.00;5136746;27;20039;-71
2022/01/10 05:23:16;;;;;;;15.93;9.10;;;;;;;3.12;100.00;92890.13;5136595;27;20023;-70
2022/01/10 05:25:42;;;;;;;16.98;9.10;;;;;;;3.08;100.00;92894.97;5136817;27;20030;-72
2022/01/10 05:28:10;;;;;;;15.65;8.35;;;;;;;3.09;100.00;92902.53;5135493;27;20045;-71
2022/01/10 05:30:37;;;;;;;13.70;8.00;;;;;;;2.92;100.00;92909.69;5136161;27;20030;-70
2022/01/10 05:33:03;;;;;;;14.30;8.60;;;;;;;2.95;100.00;92903.41;5136705;27;20039;-70
2022/01/10 05:35:29;;;;;;;13.25;9.23;;;;;;;3.00;100.00;92910.72;5136444;27;20403;-70
2022/01/10 05:37:54;;;;;;;15.75;9.68;;;;;;;2.93;100.00;92900.44;5136306;27;20023;-71
2022/01/10 05:40:20;;;;;;;14.98;9.90;;;;;;;3.03;100.00;92909.81;5136385;27;20038;-70
2022/01/10 05:42:46;;;;;;;16.27;9.60;;;;;;;2.99;100.00;92903.91;5136314;27;20031;-72
2022/01/10 05:45:11;;;;;;;16.50;10.00;;;;;;;3.07;100.00;92913.00;5136316;27;20051;-71
2022/01/10 05:47:41;;;;;;;15.13;9.48;;;;;;;3.01;100.00;92925.59;5136479;27;20027;-72
2022/01/10 05:50:09;;;;;;;13.48;9.27;;;;;;;2.86;100.00;92915.75;5136201;27;20019;-70
2022/01/10 05:52:35;;;;;;;20.77;10.80;;;;;;;3.00;100.00;92916.09;5136093;27;20026;-71
2022/01/10 05:55:01;;;;;;;16.70;9.85;;;;;;;2.99;100.00;92914.66;5135249;27;20035;-71
2022/01/10 05:57:27;;;;;;;18.55;9.35;;;;;;;3.07;100.00;92923.72;5135049;27;20031;-71
2022/01/10 05:59:53;;;;;;;15.68;9.95;;;;;;;2.92;100.00;92918.47;5136177;27;20049;-71
2022/01/10 06:02:18;;;;;;;15.95;10.45;;;;;;;2.91;100.00;92918.97;5136326;27;20031;-71
2022/01/10 06:04:43;;;;;;;20.58;10.48;;;;;;;2.86;100.00;92929.16;5135099;27;20361;-71
2022/01/10 06:07:09;;;;;;;17.95;10.00;;;;;;;2.75;100.00;92933.69;5135958;27;20020;-71
2022/01/10 06:09:34;;;;;;;18.48;11.18;;;;;;;2.77;100.00;92929.31;5136438;27;20019;-72
2022/01/10 06:12:00;;;;;;;20.27;10.82;;;;;;;2.65;100.00;92927.75;5135856;27;20101;-69
2022/01/10 06:14:26;;;;;;;19.27;12.18;;;;;;;2.80;100.00;92925.69;5135812;27;20168;-69
2022/01/10 06:16:51;;;;;;;19.70;11.95;;;;;;;2.85;100.00;92938.41;5135724;27;20048;-70
2022/01/10 06:19:16;;;;;;;19.00;12.20;;;;;;;2.83;100.00;92943.50;5135583;27;20023;-71
2022/01/10 06:21:42;;;;;;;21.45;14.02;;;;;;;2.83;100.00;92943.50;5135615;27;20511;-71
2022/01/10 06:24:08;;;;;;;18.27;12.77;;;;;;;2.83;100.00;92930.09;5136050;27;20099;-70
2022/01/10 06:26:34;;;;;;;18.98;10.90;;;;;;;2.82;100.00;92944.72;5135443;27;20094;-70
2022/01/10 06:28:59;;;;;;;15.95;10.20;;;;;;;2.76;100.00;92949.28;5134441;27;20102;-70
2022/01/10 06:31:25;;;;;;;21.60;12.52;;;;;;;2.82;100.00;92950.06;5135430;27;20023;-71
2022/01/10 06:33:50;;;;;;;20.95;12.07;;;;;;;2.83;100.00;92950.81;5135857;27;20030;-70
2022/01/10 06:36:16;;;;;;;22.35;12.15;;;;;;;2.83;100.00;92946.16;5135349;27;20034;-71
2022/01/10 06:38:41;;;;;;;18.75;12.02;;;;;;;2.80;100.00;92946.41;5135299;27;20023;-72
2022/01/10 06:41:07;;;;;;;21.35;11.93;;;;;;;2.77;100.00;92936.59;5134979;27;20098;-72
2022/01/10 06:43:32;;;;;;;22.33;14.30;;;;;;;2.79;100.00;92956.34;5135062;27;20514;-72
2022/01/10 06:45:58;;;;;;;23.38;11.70;;;;;;;2.87;100.00;92957.41;5134183;27;20452;-71
2022/01/10 06:48:23;;;;;;;28.17;14.25;;;;;;;3.03;100.00;92955.38;5135074;27;20031;-71
2022/01/10 06:50:49;;;;;;;24.75;13.43;;;;;;;2.83;100.00;92951.53;5135595;27;20027;-71
2022/01/10 06:53:15;;;;;;;22.33;13.23;;;;;;;2.97;100.00;92962.63;5134948;27;20452;-71
2022/01/10 06:55:41;;;;;;;27.60;13.38;;;;;;;2.93;100.00;92968.19;5134972;27;20376;-71
2022/01/10 06:58:06;;;;;;;26.15;13.93;;;;;;;2.91;100.00;92972.56;5134538;27;20022;-71
2022/01/10 07:00:32;;;;;;;24.65;13.55;;;;;;;2.94;100.00;92974.28;5135053;27;20034;-71
2022/01/10 07:02:58;;;;;;;20.90;12.23;;;;;;;2.90;100.00;92971.09;5135007;27;20023;-71
2022/01/10 07:05:23;;;;;;;23.40;11.95;;;;;;;2.78;100.00;92979.03;5134615;27;20019;-70
2022/01/10 07:07:49;;;;;;;25.83;12.32;;;;;;;2.83;100.00;92977.59;5133532;27;20019;-71
2022/01/10 07:10:14;;;;;;;23.13;11.90;;;;;;;2.88;100.00;92979.59;5134891;27;20057;-70
2022/01/10 07:12:40;;;;;;;23.25;13.10;;;;;;;3.00;100.00;92988.47;5135565;27;20452;-72
2022/01/10 07:15:06;;;;;;;25.58;12.68;;;;;;;2.93;100.00;92986.97;5135334;27;20361;-71
2022/01/10 07:17:33;;;;;;;22.40;12.55;;;;;;;2.97;100.00;92986.75;5134568;27;20053;-71
2022/01/10 07:19:59;;;;;;;25.13;13.93;;;;;;;2.91;100.00;92996.69;5134278;27;20023;-71
2022/01/10 07:22:24;;;;;;;21.77;13.57;;;;;;;3.02;100.00;92994.81;5134817;27;20019;-71
2022/01/10 07:24:50;;;;;;;25.20;13.63;;;;;;;3.20;100.00;93009.88;5134522;27;20455;-71
2022/01/10 07:27:16;;;;;;;19.38;12.25;;;;;;;3.20;100.00;93004.50;5134149;27;20105;-71
2022/01/10 07:29:41;;;;;;;21.83;13.13;;;;;;;3.22;100.00;93002.06;5134213;27;20030;-71
2022/01/10 07:32:07;;;;;;;25.30;12.48;;;;;;;3.20;100.00;93006.44;5134044;27;20030;-71
2022/01/10 07:34:33;;;;;;;30.25;16.15;;;;;;;3.43;100.00;93014.69;5133941;27;20031;-71
2022/01/10 07:36:58;;;;;;;24.95;14.52;;;;;;;3.44;100.00;93008.84;5133976;27;20079;-72
2022/01/10 07:39:24;;;;;;;25.60;14.43;;;;;;;3.68;100.00;93023.88;5134127;27;20468;-72
2022/01/10 07:41:49;;;;;;;23.73;13.15;;;;;;;3.49;100.00;93024.25;5134236;27;20429;-72
2022/01/10 07:44:15;;;;;;;24.77;13.75;;;;;;;3.54;100.00;93025.47;5133668;27;20058;-72
2022/01/10 07:46:40;;;;;;;21.08;13.95;;;;;;;3.54;100.00;93025.47;5133834;27;20023;-72
2022/01/10 07:49:06;;;;;;;28.70;14.77;;;;;;;3.81;100.00;93031.53;5133772;27;20023;-71
2022/01/10 07:51:31;;;;;;;31.48;14.98;;;;;;;3.96;100.00;93026.03;5133828;27;20136;-71
2022/01/10 07:53:59;;;;;;;31.05;13.68;;;;;;;3.89;100.00;93022.56;5132233;27;20076;-71
2022/01/10 07:56:25;;;;;;;25.27;14.00;;;;;;;3.78;100.00;93021.75;5133912;27;20019;-71
2022/01/10 07:58:52;;;;;;;26.60;13.15;;;;;;;3.89;100.00;93027.91;5133659;27;20038;-70
2022/01/10 08:01:19;;;;;;;24.73;11.85;;;;;;;3.72;100.00;93030.50;5132921;27;20088;-70
2022/01/10 08:03:46;;;;;;;25.42;12.82;;;;;;;3.76;100.00;93029.53;5133851;27;20046;-71
2022/01/10 08:06:12;;;;;;;21.23;12.63;;;;;;;3.92;100.00;93030.88;5132792;27;20077;-71
2022/01/10 08:08:37;;;;;;;20.50;11.25;;;;;;;4.01;100.00;93026.06;5134270;27;20019;-71
2022/01/10 08:11:03;;;;;;;21.90;11.25;;;;;;;3.75;100.00;93028.06;5134715;27;20027;-72
2022/01/10 08:13:28;;;;;;;25.85;11.90;;;;;;;3.78;100.00;93021.75;5133656;27;20030;-70
2022/01/10 08:15:54;;;;;;;19.98;11.63;;;;;;;3.78;100.00;93019.09;5132645;27;20062;-70
2022/01/10 08:18:19;;;;;;;24.88;12.80;;;;;;;3.84;100.00;93020.56;5133353;27;20027;-71
2022/01/10 08:20:45;;;;;;;23.60;12.82;;;;;;;3.84;100.00;93020.56;5133672;27;20015;-71
2022/01/10 08:23:12;;;;;;;21.67;12.80;;;;;;;3.70;100.00;93024.16;5133485;27;20027;-71
2022/01/10 08:25:37;;;;;;;28.60;14.88;;;;;;;3.97;100.00;93022.84;5133702;27;20107;-70
2022/01/10 08:28:03;;;;;;;27.67;14.85;;;;;;;4.03;100.00;93020.19;5133786;27;20042;-71
2022/01/10 08:30:29;;;;;;;28.02;14.82;;;;;;;3.98;100.00;93020.91;5133723;27;20023;-71
2022/01/10 08:32:54;;;;;;;27.15;16.95;;;;;;;4.04;100.00;93022.41;5132483;28;20041;-72
2022/01/10 08:35:20;;;;;;;36.00;20.58;;;;;;;4.00;100.00;93026.53;5133432;27;20091;-72
2022/01/10 08:37:46;;;;;;;37.30;21.08;;;;;;;3.89;100.00;93033.28;5133640;27;20062;-72
2022/01/10 08:40:13;;;;;;;36.33;20.83;;;;;;;3.91;100.00;93029.41;5133431;27;20027;-71
2022/01/10 08:42:38;;;;;;;34.78;19.33;;;;;;;3.88;100.00;93033.78;5133726;28;20046;-71
2022/01/10 08:45:05;;;;;;;33.42;17.55;;;;;;;3.51;100.00;93031.81;5133140;27;20428;-71
2022/01/10 08:47:30;;;;;;;29.70;16.20;;;;;;;3.54;100.00;93031.59;5133354;27;20098;-71
2022/01/10 08:49:56;;;;;;;27.17;13.63;;;;;;;3.47;100.00;93042.75;5132531;28;20073;-71
2022/01/10 08:52:22;;;;;;;18.73;11.05;;;;;;;3.32;100.00;93039.47;5133578;27;20019;-71
2022/01/10 08:54:49;;;;;;;21.20;10.10;;;;;;;3.21;100.00;93040.81;5133867;27;20353;-71
2022/01/10 08:57:15;;;;;;;17.92;9.85;;;;;;;3.02;100.00;93036.97;5133236;27;20031;-70
2022/01/10 08:59:40;;;;;;;20.73;10.25;;;;;;;3.05;100.00;93044.06;5132146;28;20104;-70
2022/01/10 09:02:07;;;;;;;18.00;9.15;;;;;;;3.02;100.00;93047.72;5133094;27;20035;-71
2022/01/10 09:04:33;;;;;;;15.65;9.63;;;;;;;3.16;100.00;93046.13;5134442;27;20444;-71
2022/01/10 09:07:00;;;;;;;19.73;8.93;;;;;;;3.18;100.00;93052.50;5136977;27;20038;-71
2022/01/10 09:09:26;;;;;;;18.15;9.73;;;;;;;3.43;100.00;93050.28;5137231;27;20413;-70
2022/01/10 09:11:52;;;;;;;18.15;9.13;;;;;;;3.73;100.00;93058.06;5137166;27;20102;-70
2022/01/10 09:14:18;;;;;;;15.48;9.20;;;;;;;3.59;100.00;93059.69;5136809;27;20132;-70
2022/01/10 09:16:43;;;;;;;18.52;10.32;;;;;;;3.67;100.00;93052.66;5137009;27;20023;-71
2022/01/10 09:19:09;;;;;;;20.63;10.38;;;;;;;3.68;100.00;93050.69;5136908;27;20493;-70
2022/01/10 09:21:35;;;;;;;22.65;11.35;;;;;;;3.67;100.00;93054.63;5136618;27;20034;-70
2022/01/10 09:24:02;;;;;;;23.13;8.95;;;;;;;3.78;100.00;93059.34;5136902;27;20030;-70
2022/01/10 09:26:27;;;;;;;20.67;10.27;;;;;;;3.81;100.00;93063.75;5136703;27;20447;-71
2022/01/10 09:28:54;;;;;;;17.80;8.90;;;;;;;3.73;100.00;93055.38;5136548;27;20026;-71
2022/01/10 09:31:22;;;;;;;13.52;8.07;;;;;;;3.87;100.00;93062.56;5136852;27;20023;-70
2022/01/10 09:33:53;;;;;;;13.30;8.50;;;;;;;4.08;100.00;93059.78;5136668;27;20448;-70
2022/01/10 09:36:19;;;;;;;17.80;8.50;;;;;;;3.87;100.00;93065.25;5136451;27;20110;-70
2022/01/10 09:38:44;;;;;;;14.90;9.02;;;;;;;3.61;100.00;93061.88;5139208;27;20472;-70
2022/01/10 09:41:10;;;;;;;17.50;8.45;;;;;;;3.69;100.00;93052.19;5144000;27;20027;-70
2022/01/10 09:43:35;;;;;;;17.85;10.68;;;;;;;3.84;100.00;93060.81;5141268;27;20049;-71
2022/01/10 09:46:01;;;;;;;16.38;10.52;;;;;;;3.72;100.00;93057.34;5143369;27;20353;-71
2022/01/10 09:48:27;;;;;;;18.08;10.35;;;;;;;3.80;100.00;93057.63;5141413;27;20019;-71
2022/01/10 09:50:52;;;;;;;16.50;9.98;;;;;;;3.87;100.00;93057.19;5136816;27;20023;-70
2022/01/10 09:53:21;;;;;;;19.45;11.40;;;;;;;4.03;100.00;93060.47;5136377;27;20528;-70
2022/01/10 09:55:48;;;;;;;19.65;10.38;;;;;;;4.07;100.00;93069.03;5136069;27;20015;-70
2022/01/10 09:58:13;;;;;;;16.95;9.93;;;;;;;4.01;100.00;93062.91;5136165;27;20039;-70
2022/01/10 10:00:39;;;;;;;20.83;10.02;;;;;;;4.00;100.00;93069.50;5136291;27;20030;-70
2022/01/10 10:03:06;;;;;;;21.48;10.95;;;;;;;3.94;100.00;93066.00;5136421;27;20027;-70
2022/01/10 10:05:32;;;;;;;17.73;10.60;;;;;;;4.09;100.00;93061.25;5136191;27;20033;-71
2022/01/10 10:07:57;;;;;;;17.20;10.65;;;;;;;4.17;100.00;93056.16;5135781;27;20016;-70
2022/01/10 10:10:26;;;;;;;17.65;10.32;;;;;;;4.10;100.00;93062.69;5135859;27;20031;-71
2022/01/10 10:12:53;;;;;;;20.05;11.45;;;;;;;4.25;100.00;93065.22;5135668;27;20023;-71
2022/01/10 10:15:23;;;;;;;23.00;11.88;;;;;;;4.07;100.00;93058.28;5135513;27;20443;-70
2022/01/10 10:17:49;;;;;;;19.13;11.35;;;;;;;4.19;100.00;93057.16;5134980;27;20058;-70
2022/01/10 10:20:23;;;;;;;19.27;9.77;;;;;;;4.18;100.00;93057.63;5135503;27;20019;-70
2022/01/10 10:22:53;;;;;;;20.05;10.98;;;;;;;4.23;100.00;93065.72;5135692;27;20023;-70
2022/01/10 10:25:19;;;;;;;18.70;10.65;;;;;;;4.26;100.00;93058.66;5135446;27;20050;-69
2022/01/10 10:27:46;;;;;;;20.35;10.85;;;;;;;4.43;100.00;93061.44;5135226;27;20102;-70
2022/01/10 10:30:21;;;;;;;21.67;11.13;;;;;;;4.29;100.00;93063.06;5135304;27;20023;-70
2022/01/10 10:32:47;;;;;;;26.40;11.23;;;;;;;4.17;100.00;93062.28;5135912;27;20501;-70
2022/01/10 10:35:14;;;;;;;19.95;11.60;;;;;;;4.16;100.00;93066.16;5136350;27;20071;-69
2022/01/10 10:37:41;;;;;;;23.52;12.77;;;;;;;4.15;100.00;93064.69;5135987;27;20440;-69
2022/01/10 10:40:10;;;;;;;23.52;13.00;;;;;;;4.18;100.00;93047.63;5135495;27;20035;-70
2022/01/10 10:42:39;;;;;;;24.95;12.38;;;;;;;4.12;100.00;93049.53;5135368;27;20027;-71
2022/01/10 10:45:06;;;;;;;20.27;13.02;;;;;;;3.88;100.00;93053.28;5135107;27;20043;-70
2022/01/10 10:47:38;;;;;;;22.63;13.23;;;;;;;4.15;100.00;93053.94;5135060;27;20027;-70
2022/01/10 10:50:06;;;;;;;26.00;12.63;;;;;;;4.12;100.00;93052.22;5134020;27;20456;-70
2022/01/10 10:52:38;;;;;;;20.58;13.20;;;;;;;4.21;100.00;93057.41;5135158;27;20458;-70
2022/01/10 10:55:05;;;;;;;;;;;;;;;4.31;100.00;93060.63;5135805;27;20034;-71
2022/01/10 10:57:32;;;;;;;25.40;13.10;;;;;;;4.30;100.00;93063.81;5135134;27;20355;-68
2022/01/10 10:59:59;;;;;;;27.85;12.73;;;;;;;4.18;100.00;93055.66;5135397;27;20444;-71
2022/01/10 11:02:25;;;;;;;22.70;13.07;;;;;;;4.01;100.00;93060.22;5134995;27;20019;-71
2022/01/10 11:04:51;;;;;;;28.83;13.25;;;;;;;4.02;100.00;93067.03;5134816;27;20023;-71
2022/01/10 11:07:21;;;;;;;21.60;12.70;;;;;;;4.09;100.00;93073.94;5134701;27;20025;-70
2022/01/10 11:09:48;;;;;;;26.50;13.48;;;;;;;4.28;100.00;93071.59;5134906;27;20076;-70
2022/01/10 11:12:16;;;;;;;25.02;14.25;;;;;;;4.25;100.00;93077.94;5134554;27;20031;-70
2022/01/10 11:14:42;;;;;;;26.67;14.02;;;;;;;3.84;100.00;93060.81;5134963;27;20027;-70
2022/01/10 11:17:19;;;;;;;24.00;15.38;;;;;;;3.67;100.00;93070.72;5135307;27;20357;-70
2022/01/10 11:20:10;;;;;;;24.48;15.05;;;;;;;3.79;100.00;93071.53;5133557;27;20410;-70
2022/01/10 11:22:44;;;;;;;24.13;14.00;;;;;;;3.78;100.00;93081.53;5134762;27;20437;-71
2022/01/10 11:25:35;;;;;;;21.73;12.68;;;;;;;3.86;100.00;93076.47;5134638;27;20106;-71
2022/01/10 11:28:06;;;;;;;21.77;11.85;;;;;;;3.85;100.00;93081.09;5128390;27;20035;-70
2022/01/10 11:30:41;;;;;;;18.65;9.95;;;;;;;3.75;100.00;93077.13;5134840;27;20029;-70
2022/01/10 11:33:15;;;;;;;17.10;9.43;;;;;;;3.79;100.00;93083.00;5134509;27;20426;-68
2022/01/10 11:35:53;;;;;;;17.23;10.20;;;;;;;3.71;100.00;93084.66;5134377;27;20058;-69
2022/01/10 11:38:29;;;;;;;15.40;8.80;;;;;;;3.69;100.00;93079.00;5134603;27;20448;-69